sensor_id;sensor_type;location;lat;lon;timestamp;P1;durP1;ratioP1;P2;durP2;ratioP2
50647;SDS011;36617;52.002;6.034;2022-12-18T00:00:25;14.13;;;10.27;;
50647;SDS011;36617;52.002;6.034;2022-12-18T00:02:50;14.60;;;10.63;;
50647;SDS011;36617;52.002;6.034;2022-12-18T00:05:15;14.37;;;10.50;;
50647;SDS011;36617;52.002;6.034;2022-12-18T00:07:41;14.53;;;10.53;;
50647;SDS011;36617;52.002;6.034;2022-12-18T00:10:06;13.67;;;10.30;;
50647;SDS011;36617;52.002;6.034;2022-12-18T00:12:31;13.48;;;10.23;;
50647;SDS011;36617;52.002;6.034;2022-12-18T00:14:56;13.93;;;10.23;;
50647;SDS011;36617;52.002;6.034;2022-12-18T00:17:22;13.60;;;10.03;;
50647;SDS011;36617;52.002;6.034;2022-12-18T00:19:47;14.63;;;10.53;;
50647;SDS011;36617;52.002;6.034;2022-12-18T00:22:12;14.07;;;9.80;;
50647;SDS011;36617;52.002;6.034;2022-12-18T00:24:37;13.80;;;10.17;;
50647;SDS011;36617;52.002;6.034;2022-12-18T00:27:02;14.13;;;10.13;;
50647;SDS011;36617;52.002;6.034;2022-12-18T00:29:27;14.40;;;10.17;;
50647;SDS011;36617;52.002;6.034;2022-12-18T00:31:53;14.20;;;9.90;;
50647;SDS011;36617;52.002;6.034;2022-12-18T00:34:18;13.97;;;10.10;;
50647;SDS011;36617;52.002;6.034;2022-12-18T00:36:43;13.57;;;10.10;;
50647;SDS011;36617;52.002;6.034;2022-12-18T00:39:09;14.53;;;10.43;;
50647;SDS011;36617;52.002;6.034;2022-12-18T00:41:34;13.60;;;10.18;;
50647;SDS011;36617;52.002;6.034;2022-12-18T00:44:19;14.52;;;10.60;;
50647;SDS011;36617;52.002;6.034;2022-12-18T00:46:44;14.48;;;10.48;;
50647;SDS011;36617;52.002;6.034;2022-12-18T00:49:13;13.73;;;10.27;;
50647;SDS011;36617;52.002;6.034;2022-12-18T00:51:39;13.25;;;9.90;;
50647;SDS011;36617;52.002;6.034;2022-12-18T00:54:04;13.43;;;9.70;;
50647;SDS011;36617;52.002;6.034;2022-12-18T00:56:30;14.13;;;10.15;;
50647;SDS011;36617;52.002;6.034;2022-12-18T00:58:55;14.55;;;10.50;;
50647;SDS011;36617;52.002;6.034;2022-12-18T01:01:20;14.43;;;10.43;;
50647;SDS011;36617;52.002;6.034;2022-12-18T01:03:45;13.57;;;10.37;;
50647;SDS011;36617;52.002;6.034;2022-12-18T01:06:12;13.63;;;10.47;;
50647;SDS011;36617;52.002;6.034;2022-12-18T01:08:38;14.52;;;10.50;;
50647;SDS011;36617;52.002;6.034;2022-12-18T01:11:10;13.77;;;10.43;;
50647;SDS011;36617;52.002;6.034;2022-12-18T01:13:36;13.07;;;10.20;;
50647;SDS011;36617;52.002;6.034;2022-12-18T01:16:01;13.43;;;10.40;;
50647;SDS011;36617;52.002;6.034;2022-12-18T01:18:27;14.40;;;10.93;;
50647;SDS011;36617;52.002;6.034;2022-12-18T01:20:52;13.93;;;10.53;;
50647;SDS011;36617;52.002;6.034;2022-12-18T01:23:17;13.87;;;10.23;;
50647;SDS011;36617;52.002;6.034;2022-12-18T01:25:42;13.03;;;9.77;;
50647;SDS011;36617;52.002;6.034;2022-12-18T01:28:07;14.18;;;10.18;;
50647;SDS011;36617;52.002;6.034;2022-12-18T01:30:33;14.10;;;10.23;;
50647;SDS011;36617;52.002;6.034;2022-12-18T01:32:58;13.60;;;10.30;;
50647;SDS011;36617;52.002;6.034;2022-12-18T01:35:23;13.70;;;10.57;;
50647;SDS011;36617;52.002;6.034;2022-12-18T01:37:48;15.10;;;11.07;;
50647;SDS011;36617;52.002;6.034;2022-12-18T01:40:13;13.43;;;10.43;;
50647;SDS011;36617;52.002;6.034;2022-12-18T01:42:38;15.00;;;10.90;;
50647;SDS011;36617;52.002;6.034;2022-12-18T01:47:48;14.32;;;10.85;;
50647;SDS011;36617;52.002;6.034;2022-12-18T01:52:43;14.07;;;10.73;;
50647;SDS011;36617;52.002;6.034;2022-12-18T01:55:10;15.37;;;10.80;;
50647;SDS011;36617;52.002;6.034;2022-12-18T01:57:35;14.50;;;10.50;;
50647;SDS011;36617;52.002;6.034;2022-12-18T02:00:04;14.00;;;10.80;;
50647;SDS011;36617;52.002;6.034;2022-12-18T02:02:30;15.20;;;10.65;;
50647;SDS011;36617;52.002;6.034;2022-12-18T02:04:56;14.87;;;10.63;;
50647;SDS011;36617;52.002;6.034;2022-12-18T02:09:47;14.43;;;10.90;;
50647;SDS011;36617;52.002;6.034;2022-12-18T02:12:15;15.32;;;11.00;;
50647;SDS011;36617;52.002;6.034;2022-12-18T02:14:44;14.73;;;10.97;;
50647;SDS011;36617;52.002;6.034;2022-12-18T02:17:11;14.13;;;11.07;;
50647;SDS011;36617;52.002;6.034;2022-12-18T02:19:55;15.50;;;11.55;;
50647;SDS011;36617;52.002;6.034;2022-12-18T02:24:53;14.83;;;11.00;;
50647;SDS011;36617;52.002;6.034;2022-12-18T02:27:23;15.05;;;11.15;;
50647;SDS011;36617;52.002;6.034;2022-12-18T02:29:52;14.07;;;10.63;;
50647;SDS011;36617;52.002;6.034;2022-12-18T02:32:20;14.82;;;11.07;;
50647;SDS011;36617;52.002;6.034;2022-12-18T02:34:47;15.43;;;11.23;;
50647;SDS011;36617;52.002;6.034;2022-12-18T02:37:14;14.25;;;10.85;;
50647;SDS011;36617;52.002;6.034;2022-12-18T02:39:41;14.25;;;10.77;;
50647;SDS011;36617;52.002;6.034;2022-12-18T02:42:07;14.10;;;10.38;;
50647;SDS011;36617;52.002;6.034;2022-12-18T02:44:41;13.43;;;10.53;;
50647;SDS011;36617;52.002;6.034;2022-12-18T02:47:08;13.65;;;10.70;;
50647;SDS011;36617;52.002;6.034;2022-12-18T02:49:36;14.43;;;10.60;;
50647;SDS011;36617;52.002;6.034;2022-12-18T02:52:13;13.27;;;10.10;;
50647;SDS011;36617;52.002;6.034;2022-12-18T02:54:47;14.35;;;10.43;;
50647;SDS011;36617;52.002;6.034;2022-12-18T02:57:22;14.20;;;10.13;;
50647;SDS011;36617;52.002;6.034;2022-12-18T02:59:58;14.38;;;10.65;;
50647;SDS011;36617;52.002;6.034;2022-12-18T03:02:37;14.05;;;10.48;;
50647;SDS011;36617;52.002;6.034;2022-12-18T03:05:37;13.90;;;10.13;;
50647;SDS011;36617;52.002;6.034;2022-12-18T03:07:58;13.43;;;10.03;;
50647;SDS011;36617;52.002;6.034;2022-12-18T03:10:26;13.75;;;9.80;;
50647;SDS011;36617;52.002;6.034;2022-12-18T03:12:53;13.65;;;10.27;;
50647;SDS011;36617;52.002;6.034;2022-12-18T03:15:25;12.68;;;9.50;;
50647;SDS011;36617;52.002;6.034;2022-12-18T03:17:52;13.15;;;9.40;;
50647;SDS011;36617;52.002;6.034;2022-12-18T03:20:19;12.63;;;9.55;;
50647;SDS011;36617;52.002;6.034;2022-12-18T03:22:51;13.80;;;9.65;;
50647;SDS011;36617;52.002;6.034;2022-12-18T03:25:18;12.65;;;9.43;;
50647;SDS011;36617;52.002;6.034;2022-12-18T03:27:46;12.15;;;9.15;;
50647;SDS011;36617;52.002;6.034;2022-12-18T03:30:12;13.82;;;9.55;;
50647;SDS011;36617;52.002;6.034;2022-12-18T03:32:42;12.30;;;9.57;;
50647;SDS011;36617;52.002;6.034;2022-12-18T03:35:10;12.25;;;9.13;;
50647;SDS011;36617;52.002;6.034;2022-12-18T03:37:37;12.93;;;9.32;;
50647;SDS011;36617;52.002;6.034;2022-12-18T03:40:03;12.33;;;9.27;;
50647;SDS011;36617;52.002;6.034;2022-12-18T03:42:51;12.55;;;8.93;;
50647;SDS011;36617;52.002;6.034;2022-12-18T03:45:50;12.38;;;8.93;;
50647;SDS011;36617;52.002;6.034;2022-12-18T03:50:40;11.90;;;8.60;;
50647;SDS011;36617;52.002;6.034;2022-12-18T03:55:32;11.48;;;8.63;;
50647;SDS011;36617;52.002;6.034;2022-12-18T03:57:58;11.05;;;8.30;;
50647;SDS011;36617;52.002;6.034;2022-12-18T04:00:24;11.70;;;8.40;;
50647;SDS011;36617;52.002;6.034;2022-12-18T04:02:51;12.13;;;9.03;;
50647;SDS011;36617;52.002;6.034;2022-12-18T04:05:17;11.00;;;8.20;;
50647;SDS011;36617;52.002;6.034;2022-12-18T04:07:42;11.27;;;8.33;;
50647;SDS011;36617;52.002;6.034;2022-12-18T04:10:08;11.32;;;8.02;;
50647;SDS011;36617;52.002;6.034;2022-12-18T04:12:37;11.60;;;8.43;;
50647;SDS011;36617;52.002;6.034;2022-12-18T04:15:02;10.80;;;7.87;;
50647;SDS011;36617;52.002;6.034;2022-12-18T04:17:27;11.07;;;8.07;;
50647;SDS011;36617;52.002;6.034;2022-12-18T04:19:52;10.73;;;8.43;;
50647;SDS011;36617;52.002;6.034;2022-12-18T04:22:18;10.70;;;7.77;;
50647;SDS011;36617;52.002;6.034;2022-12-18T04:24:43;10.67;;;7.53;;
50647;SDS011;36617;52.002;6.034;2022-12-18T04:27:08;10.60;;;7.77;;
50647;SDS011;36617;52.002;6.034;2022-12-18T04:29:33;11.50;;;8.00;;
50647;SDS011;36617;52.002;6.034;2022-12-18T04:31:58;11.07;;;7.83;;
50647;SDS011;36617;52.002;6.034;2022-12-18T04:34:24;10.40;;;7.60;;
50647;SDS011;36617;52.002;6.034;2022-12-18T04:36:49;11.03;;;7.87;;
50647;SDS011;36617;52.002;6.034;2022-12-18T04:39:14;10.70;;;7.80;;
50647;SDS011;36617;52.002;6.034;2022-12-18T04:41:42;11.52;;;7.80;;
50647;SDS011;36617;52.002;6.034;2022-12-18T04:44:07;11.00;;;8.07;;
50647;SDS011;36617;52.002;6.034;2022-12-18T04:46:32;10.33;;;7.50;;
50647;SDS011;36617;52.002;6.034;2022-12-18T04:48:58;10.47;;;7.53;;
50647;SDS011;36617;52.002;6.034;2022-12-18T04:51:23;10.77;;;7.90;;
50647;SDS011;36617;52.002;6.034;2022-12-18T04:53:48;10.07;;;7.47;;
50647;SDS011;36617;52.002;6.034;2022-12-18T04:56:14;9.97;;;7.53;;
50647;SDS011;36617;52.002;6.034;2022-12-18T04:58:40;10.13;;;7.47;;
50647;SDS011;36617;52.002;6.034;2022-12-18T05:01:05;10.40;;;7.57;;
50647;SDS011;36617;52.002;6.034;2022-12-18T05:03:31;10.53;;;7.63;;
50647;SDS011;36617;52.002;6.034;2022-12-18T05:05:56;9.77;;;7.40;;
50647;SDS011;36617;52.002;6.034;2022-12-18T05:08:21;9.57;;;6.97;;
50647;SDS011;36617;52.002;6.034;2022-12-18T05:10:47;9.57;;;6.90;;
50647;SDS011;36617;52.002;6.034;2022-12-18T05:13:12;10.00;;;7.30;;
50647;SDS011;36617;52.002;6.034;2022-12-18T05:15:37;9.97;;;7.13;;
50647;SDS011;36617;52.002;6.034;2022-12-18T05:18:02;9.53;;;6.90;;
50647;SDS011;36617;52.002;6.034;2022-12-18T05:20:28;9.77;;;7.23;;
50647;SDS011;36617;52.002;6.034;2022-12-18T05:22:53;9.57;;;7.07;;
50647;SDS011;36617;52.002;6.034;2022-12-18T05:25:19;10.10;;;6.90;;
50647;SDS011;36617;52.002;6.034;2022-12-18T05:27:44;9.93;;;7.03;;
50647;SDS011;36617;52.002;6.034;2022-12-18T05:30:10;9.23;;;6.30;;
50647;SDS011;36617;52.002;6.034;2022-12-18T05:32:35;10.03;;;6.80;;
50647;SDS011;36617;52.002;6.034;2022-12-18T05:35:00;9.30;;;6.50;;
50647;SDS011;36617;52.002;6.034;2022-12-18T05:37:25;9.97;;;7.00;;
50647;SDS011;36617;52.002;6.034;2022-12-18T05:39:51;9.37;;;6.87;;
50647;SDS011;36617;52.002;6.034;2022-12-18T05:42:16;9.20;;;6.60;;
50647;SDS011;36617;52.002;6.034;2022-12-18T05:44:41;9.40;;;6.77;;
50647;SDS011;36617;52.002;6.034;2022-12-18T05:47:06;8.47;;;6.23;;
50647;SDS011;36617;52.002;6.034;2022-12-18T05:49:31;9.23;;;6.30;;
50647;SDS011;36617;52.002;6.034;2022-12-18T05:51:57;8.80;;;6.30;;
50647;SDS011;36617;52.002;6.034;2022-12-18T05:54:22;9.40;;;6.80;;
50647;SDS011;36617;52.002;6.034;2022-12-18T05:56:47;9.73;;;6.77;;
50647;SDS011;36617;52.002;6.034;2022-12-18T05:59:12;9.50;;;6.50;;
50647;SDS011;36617;52.002;6.034;2022-12-18T06:01:37;9.30;;;6.50;;
50647;SDS011;36617;52.002;6.034;2022-12-18T06:04:03;9.25;;;6.40;;
50647;SDS011;36617;52.002;6.034;2022-12-18T06:06:28;8.90;;;6.10;;
50647;SDS011;36617;52.002;6.034;2022-12-18T06:08:54;8.87;;;6.30;;
50647;SDS011;36617;52.002;6.034;2022-12-18T06:11:20;9.00;;;6.00;;
50647;SDS011;36617;52.002;6.034;2022-12-18T06:13:45;8.43;;;6.07;;
50647;SDS011;36617;52.002;6.034;2022-12-18T06:16:11;9.13;;;6.20;;
50647;SDS011;36617;52.002;6.034;2022-12-18T06:18:36;8.33;;;5.97;;
50647;SDS011;36617;52.002;6.034;2022-12-18T06:21:01;8.90;;;6.00;;
50647;SDS011;36617;52.002;6.034;2022-12-18T06:23:27;8.47;;;6.03;;
50647;SDS011;36617;52.002;6.034;2022-12-18T06:25:52;8.38;;;5.80;;
50647;SDS011;36617;52.002;6.034;2022-12-18T06:28:17;8.20;;;6.10;;
50647;SDS011;36617;52.002;6.034;2022-12-18T06:30:46;8.70;;;6.30;;
50647;SDS011;36617;52.002;6.034;2022-12-18T06:33:12;8.75;;;6.10;;
50647;SDS011;36617;52.002;6.034;2022-12-18T06:35:37;8.87;;;5.97;;
50647;SDS011;36617;52.002;6.034;2022-12-18T06:38:02;8.07;;;5.60;;
50647;SDS011;36617;52.002;6.034;2022-12-18T06:40:27;8.27;;;5.70;;
50647;SDS011;36617;52.002;6.034;2022-12-18T06:42:53;8.33;;;5.97;;
50647;SDS011;36617;52.002;6.034;2022-12-18T06:45:18;8.73;;;5.80;;
50647;SDS011;36617;52.002;6.034;2022-12-18T06:47:43;8.53;;;6.30;;
50647;SDS011;36617;52.002;6.034;2022-12-18T06:50:08;8.50;;;5.77;;
50647;SDS011;36617;52.002;6.034;2022-12-18T06:52:34;8.32;;;5.93;;
50647;SDS011;36617;52.002;6.034;2022-12-18T06:54:59;8.17;;;5.60;;
50647;SDS011;36617;52.002;6.034;2022-12-18T06:57:29;8.20;;;5.70;;
50647;SDS011;36617;52.002;6.034;2022-12-18T06:59:55;8.13;;;5.70;;
50647;SDS011;36617;52.002;6.034;2022-12-18T07:02:20;8.57;;;5.70;;
50647;SDS011;36617;52.002;6.034;2022-12-18T07:04:45;8.40;;;5.70;;
50647;SDS011;36617;52.002;6.034;2022-12-18T07:07:10;7.73;;;5.43;;
50647;SDS011;36617;52.002;6.034;2022-12-18T07:09:35;8.40;;;5.60;;
50647;SDS011;36617;52.002;6.034;2022-12-18T07:12:01;7.70;;;5.10;;
50647;SDS011;36617;52.002;6.034;2022-12-18T07:14:26;8.27;;;5.55;;
50647;SDS011;36617;52.002;6.034;2022-12-18T07:16:51;8.10;;;5.53;;
50647;SDS011;36617;52.002;6.034;2022-12-18T07:19:17;7.83;;;5.27;;
50647;SDS011;36617;52.002;6.034;2022-12-18T07:21:42;8.70;;;5.67;;
50647;SDS011;36617;52.002;6.034;2022-12-18T07:24:07;7.97;;;5.30;;
50647;SDS011;36617;52.002;6.034;2022-12-18T07:26:32;8.07;;;5.32;;
50647;SDS011;36617;52.002;6.034;2022-12-18T07:28:57;8.37;;;5.70;;
50647;SDS011;36617;52.002;6.034;2022-12-18T07:31:23;7.47;;;5.13;;
50647;SDS011;36617;52.002;6.034;2022-12-18T07:33:49;7.93;;;5.63;;
50647;SDS011;36617;52.002;6.034;2022-12-18T07:36:14;7.63;;;5.32;;
50647;SDS011;36617;52.002;6.034;2022-12-18T07:38:39;7.88;;;5.28;;
50647;SDS011;36617;52.002;6.034;2022-12-18T07:41:05;8.37;;;5.50;;
50647;SDS011;36617;52.002;6.034;2022-12-18T07:43:31;7.93;;;5.35;;
50647;SDS011;36617;52.002;6.034;2022-12-18T07:45:56;7.63;;;5.00;;
50647;SDS011;36617;52.002;6.034;2022-12-18T07:48:21;8.20;;;5.40;;
50647;SDS011;36617;52.002;6.034;2022-12-18T07:50:47;8.03;;;5.03;;
50647;SDS011;36617;52.002;6.034;2022-12-18T07:53:12;7.60;;;5.20;;
50647;SDS011;36617;52.002;6.034;2022-12-18T07:55:37;7.67;;;5.17;;
50647;SDS011;36617;52.002;6.034;2022-12-18T07:58:03;8.00;;;5.33;;
50647;SDS011;36617;52.002;6.034;2022-12-18T08:00:29;7.90;;;5.03;;
50647;SDS011;36617;52.002;6.034;2022-12-18T08:02:54;8.38;;;5.30;;
50647;SDS011;36617;52.002;6.034;2022-12-18T08:05:20;8.07;;;5.23;;
50647;SDS011;36617;52.002;6.034;2022-12-18T08:07:45;7.60;;;5.10;;
50647;SDS011;36617;52.002;6.034;2022-12-18T08:10:11;8.07;;;5.40;;
50647;SDS011;36617;52.002;6.034;2022-12-18T08:12:36;7.90;;;5.00;;
50647;SDS011;36617;52.002;6.034;2022-12-18T08:15:01;8.63;;;5.30;;
50647;SDS011;36617;52.002;6.034;2022-12-18T08:17:26;7.43;;;4.80;;
50647;SDS011;36617;52.002;6.034;2022-12-18T08:19:52;7.63;;;5.10;;
50647;SDS011;36617;52.002;6.034;2022-12-18T08:22:17;7.90;;;5.10;;
50647;SDS011;36617;52.002;6.034;2022-12-18T08:24:42;8.00;;;4.90;;
50647;SDS011;36617;52.002;6.034;2022-12-18T08:27:07;7.90;;;5.10;;
50647;SDS011;36617;52.002;6.034;2022-12-18T08:29:32;7.73;;;5.10;;
50647;SDS011;36617;52.002;6.034;2022-12-18T08:31:58;7.37;;;4.80;;
50647;SDS011;36617;52.002;6.034;2022-12-18T08:34:23;7.50;;;4.97;;
50647;SDS011;36617;52.002;6.034;2022-12-18T08:36:49;7.80;;;5.20;;
50647;SDS011;36617;52.002;6.034;2022-12-18T08:39:14;8.10;;;5.10;;
50647;SDS011;36617;52.002;6.034;2022-12-18T08:41:39;8.13;;;5.57;;
50647;SDS011;36617;52.002;6.034;2022-12-18T08:44:04;8.27;;;5.37;;
50647;SDS011;36617;52.002;6.034;2022-12-18T08:46:48;7.55;;;5.18;;
50647;SDS011;36617;52.002;6.034;2022-12-18T08:49:13;7.43;;;5.30;;
50647;SDS011;36617;52.002;6.034;2022-12-18T08:51:39;8.03;;;5.57;;
50647;SDS011;36617;52.002;6.034;2022-12-18T08:54:04;8.07;;;5.17;;
50647;SDS011;36617;52.002;6.034;2022-12-18T08:56:29;8.40;;;5.20;;
50647;SDS011;36617;52.002;6.034;2022-12-18T08:58:55;7.33;;;5.00;;
50647;SDS011;36617;52.002;6.034;2022-12-18T09:01:20;8.37;;;5.27;;
50647;SDS011;36617;52.002;6.034;2022-12-18T09:03:46;7.40;;;5.07;;
50647;SDS011;36617;52.002;6.034;2022-12-18T09:06:13;8.03;;;5.10;;
50647;SDS011;36617;52.002;6.034;2022-12-18T09:08:38;7.85;;;5.15;;
50647;SDS011;36617;52.002;6.034;2022-12-18T09:11:03;7.50;;;4.97;;
50647;SDS011;36617;52.002;6.034;2022-12-18T09:13:29;7.60;;;5.20;;
50647;SDS011;36617;52.002;6.034;2022-12-18T09:15:54;7.30;;;4.77;;
50647;SDS011;36617;52.002;6.034;2022-12-18T09:18:20;8.03;;;5.13;;
50647;SDS011;36617;52.002;6.034;2022-12-18T09:20:46;7.55;;;4.95;;
50647;SDS011;36617;52.002;6.034;2022-12-18T09:23:11;7.73;;;5.20;;
50647;SDS011;36617;52.002;6.034;2022-12-18T09:25:37;7.23;;;4.77;;
50647;SDS011;36617;52.002;6.034;2022-12-18T09:28:04;7.20;;;4.80;;
50647;SDS011;36617;52.002;6.034;2022-12-18T09:30:29;7.57;;;5.03;;
50647;SDS011;36617;52.002;6.034;2022-12-18T09:32:55;7.73;;;4.87;;
50647;SDS011;36617;52.002;6.034;2022-12-18T09:35:20;6.93;;;4.67;;
50647;SDS011;36617;52.002;6.034;2022-12-18T09:37:45;7.43;;;4.80;;
50647;SDS011;36617;52.002;6.034;2022-12-18T09:40:18;7.03;;;4.60;;
50647;SDS011;36617;52.002;6.034;2022-12-18T09:42:57;7.38;;;4.45;;
50647;SDS011;36617;52.002;6.034;2022-12-18T09:45:24;6.93;;;4.43;;
50647;SDS011;36617;52.002;6.034;2022-12-18T09:47:49;7.03;;;4.70;;
50647;SDS011;36617;52.002;6.034;2022-12-18T09:50:27;7.30;;;4.70;;
50647;SDS011;36617;52.002;6.034;2022-12-18T09:52:54;7.28;;;4.55;;
50647;SDS011;36617;52.002;6.034;2022-12-18T09:55:41;7.40;;;4.70;;
50647;SDS011;36617;52.002;6.034;2022-12-18T10:00:32;6.93;;;4.43;;
50647;SDS011;36617;52.002;6.034;2022-12-18T10:03:02;6.93;;;4.37;;
50647;SDS011;36617;52.002;6.034;2022-12-18T10:10:48;6.60;;;4.20;;
50647;SDS011;36617;52.002;6.034;2022-12-18T10:18:17;6.73;;;4.20;;
50647;SDS011;36617;52.002;6.034;2022-12-18T10:20:48;6.93;;;4.50;;
50647;SDS011;36617;52.002;6.034;2022-12-18T10:26:07;6.95;;;4.30;;
50647;SDS011;36617;52.002;6.034;2022-12-18T10:28:35;6.65;;;4.03;;
50647;SDS011;36617;52.002;6.034;2022-12-18T10:31:01;6.40;;;4.22;;
50647;SDS011;36617;52.002;6.034;2022-12-18T10:33:30;6.60;;;4.33;;
50647;SDS011;36617;52.002;6.034;2022-12-18T10:35:56;6.50;;;4.22;;
50647;SDS011;36617;52.002;6.034;2022-12-18T10:38:26;6.10;;;3.88;;
50647;SDS011;36617;52.002;6.034;2022-12-18T10:43:21;6.30;;;3.90;;
50647;SDS011;36617;52.002;6.034;2022-12-18T10:48:24;6.60;;;4.10;;
50647;SDS011;36617;52.002;6.034;2022-12-18T10:50:49;6.17;;;3.87;;
50647;SDS011;36617;52.002;6.034;2022-12-18T10:53:20;6.10;;;3.78;;
50647;SDS011;36617;52.002;6.034;2022-12-18T10:55:46;6.45;;;3.90;;
50647;SDS011;36617;52.002;6.034;2022-12-18T10:58:23;7.37;;;3.87;;
50647;SDS011;36617;52.002;6.034;2022-12-18T11:03:37;7.18;;;3.95;;
50647;SDS011;36617;52.002;6.034;2022-12-18T11:06:03;7.25;;;4.30;;
50647;SDS011;36617;52.002;6.034;2022-12-18T11:08:29;6.53;;;3.85;;
50647;SDS011;36617;52.002;6.034;2022-12-18T11:10:54;6.40;;;3.83;;
50647;SDS011;36617;52.002;6.034;2022-12-18T11:13:23;6.10;;;3.90;;
50647;SDS011;36617;52.002;6.034;2022-12-18T11:15:50;5.88;;;3.58;;
50647;SDS011;36617;52.002;6.034;2022-12-18T11:20:44;6.00;;;3.60;;
50647;SDS011;36617;52.002;6.034;2022-12-18T11:23:15;6.32;;;3.65;;
50647;SDS011;36617;52.002;6.034;2022-12-18T11:25:40;6.40;;;3.80;;
50647;SDS011;36617;52.002;6.034;2022-12-18T11:33:37;6.05;;;3.72;;
50647;SDS011;36617;52.002;6.034;2022-12-18T11:36:05;6.67;;;3.80;;
50647;SDS011;36617;52.002;6.034;2022-12-18T11:38:34;5.97;;;3.47;;
50647;SDS011;36617;52.002;6.034;2022-12-18T11:46:19;5.82;;;3.30;;
50647;SDS011;36617;52.002;6.034;2022-12-18T11:54:14;6.07;;;3.60;;
50647;SDS011;36617;52.002;6.034;2022-12-18T11:59:21;6.70;;;4.05;;
50647;SDS011;36617;52.002;6.034;2022-12-18T12:01:51;6.60;;;3.63;;
50647;SDS011;36617;52.002;6.034;2022-12-18T12:04:28;5.50;;;3.40;;
50647;SDS011;36617;52.002;6.034;2022-12-18T12:14:44;5.47;;;3.33;;
50647;SDS011;36617;52.002;6.034;2022-12-18T12:17:18;6.25;;;3.50;;
50647;SDS011;36617;52.002;6.034;2022-12-18T12:19:57;5.90;;;3.60;;
50647;SDS011;36617;52.002;6.034;2022-12-18T12:22:37;5.93;;;3.45;;
50647;SDS011;36617;52.002;6.034;2022-12-18T12:32:40;5.97;;;3.58;;
50647;SDS011;36617;52.002;6.034;2022-12-18T12:40:16;5.60;;;3.25;;
50647;SDS011;36617;52.002;6.034;2022-12-18T12:42:44;6.00;;;3.47;;
50647;SDS011;36617;52.002;6.034;2022-12-18T12:46:16;5.47;;;3.30;;
50647;SDS011;36617;52.002;6.034;2022-12-18T12:48:16;6.25;;;3.42;;
50647;SDS011;36617;52.002;6.034;2022-12-18T12:50:42;5.90;;;3.33;;
50647;SDS011;36617;52.002;6.034;2022-12-18T12:53:08;5.88;;;3.47;;
50647;SDS011;36617;52.002;6.034;2022-12-18T12:55:34;6.32;;;3.35;;
50647;SDS011;36617;52.002;6.034;2022-12-18T12:58:08;5.90;;;3.35;;
50647;SDS011;36617;52.002;6.034;2022-12-18T13:00:41;6.25;;;3.60;;
50647;SDS011;36617;52.002;6.034;2022-12-18T13:03:12;6.50;;;3.33;;
50647;SDS011;36617;52.002;6.034;2022-12-18T13:05:51;5.57;;;3.40;;
50647;SDS011;36617;52.002;6.034;2022-12-18T13:08:25;6.30;;;3.67;;
50647;SDS011;36617;52.002;6.034;2022-12-18T13:10:50;6.22;;;3.40;;
50647;SDS011;36617;52.002;6.034;2022-12-18T13:16:33;6.33;;;3.43;;
50647;SDS011;36617;52.002;6.034;2022-12-18T13:18:58;6.13;;;3.40;;
50647;SDS011;36617;52.002;6.034;2022-12-18T13:21:28;6.40;;;3.47;;
50647;SDS011;36617;52.002;6.034;2022-12-18T13:23:53;6.43;;;3.60;;
50647;SDS011;36617;52.002;6.034;2022-12-18T13:31:09;5.93;;;3.33;;
50647;SDS011;36617;52.002;6.034;2022-12-18T13:36:12;5.80;;;3.40;;
50647;SDS011;36617;52.002;6.034;2022-12-18T13:38:38;5.65;;;3.33;;
50647;SDS011;36617;52.002;6.034;2022-12-18T13:43:54;6.68;;;3.53;;
50647;SDS011;36617;52.002;6.034;2022-12-18T13:48:52;5.83;;;3.40;;
50647;SDS011;36617;52.002;6.034;2022-12-18T13:51:18;5.78;;;3.20;;
50647;SDS011;36617;52.002;6.034;2022-12-18T13:53:46;5.68;;;3.30;;
50647;SDS011;36617;52.002;6.034;2022-12-18T13:56:23;5.90;;;3.47;;
50647;SDS011;36617;52.002;6.034;2022-12-18T14:01:32;6.20;;;3.88;;
50647;SDS011;36617;52.002;6.034;2022-12-18T14:04:16;6.03;;;3.67;;
50647;SDS011;36617;52.002;6.034;2022-12-18T14:06:42;5.68;;;3.50;;
50647;SDS011;36617;52.002;6.034;2022-12-18T14:09:10;6.27;;;3.67;;
50647;SDS011;36617;52.002;6.034;2022-12-18T14:11:37;5.82;;;3.40;;
50647;SDS011;36617;52.002;6.034;2022-12-18T14:14:02;5.87;;;3.20;;
50647;SDS011;36617;52.002;6.034;2022-12-18T14:16:28;6.13;;;3.70;;
50647;SDS011;36617;52.002;6.034;2022-12-18T14:18:57;6.40;;;3.70;;
50647;SDS011;36617;52.002;6.034;2022-12-18T14:21:27;7.00;;;3.67;;
50647;SDS011;36617;52.002;6.034;2022-12-18T14:26:33;5.60;;;3.38;;
50647;SDS011;36617;52.002;6.034;2022-12-18T14:28:59;5.63;;;3.50;;
50647;SDS011;36617;52.002;6.034;2022-12-18T14:31:29;6.15;;;3.55;;
50647;SDS011;36617;52.002;6.034;2022-12-18T14:33:55;6.05;;;3.55;;
50647;SDS011;36617;52.002;6.034;2022-12-18T14:36:22;6.00;;;3.43;;
50647;SDS011;36617;52.002;6.034;2022-12-18T14:38:49;6.20;;;3.50;;
50647;SDS011;36617;52.002;6.034;2022-12-18T14:41:16;5.75;;;3.58;;
50647;SDS011;36617;52.002;6.034;2022-12-18T14:43:42;6.10;;;3.60;;
50647;SDS011;36617;52.002;6.034;2022-12-18T14:48:52;5.80;;;3.45;;
50647;SDS011;36617;52.002;6.034;2022-12-18T14:51:18;6.33;;;3.90;;
50647;SDS011;36617;52.002;6.034;2022-12-18T14:53:44;5.85;;;3.40;;
50647;SDS011;36617;52.002;6.034;2022-12-18T14:56:31;6.00;;;3.60;;
50647;SDS011;36617;52.002;6.034;2022-12-18T14:58:56;6.05;;;3.67;;
50647;SDS011;36617;52.002;6.034;2022-12-18T15:01:26;6.22;;;3.60;;
50647;SDS011;36617;52.002;6.034;2022-12-18T15:03:53;6.05;;;3.47;;
50647;SDS011;36617;52.002;6.034;2022-12-18T15:06:29;6.37;;;3.77;;
50647;SDS011;36617;52.002;6.034;2022-12-18T15:08:55;6.18;;;3.88;;
50647;SDS011;36617;52.002;6.034;2022-12-18T15:11:43;6.57;;;3.85;;
50647;SDS011;36617;52.002;6.034;2022-12-18T15:17:17;6.20;;;3.60;;
50647;SDS011;36617;52.002;6.034;2022-12-18T15:19:44;6.32;;;3.97;;
50647;SDS011;36617;52.002;6.034;2022-12-18T15:22:28;6.40;;;3.83;;
50647;SDS011;36617;52.002;6.034;2022-12-18T15:24:54;6.70;;;4.03;;
50647;SDS011;36617;52.002;6.034;2022-12-18T15:27:33;6.00;;;3.85;;
50647;SDS011;36617;52.002;6.034;2022-12-18T15:30:01;6.25;;;3.90;;
50647;SDS011;36617;52.002;6.034;2022-12-18T15:32:27;6.43;;;3.85;;
50647;SDS011;36617;52.002;6.034;2022-12-18T15:35:02;6.50;;;3.90;;
50647;SDS011;36617;52.002;6.034;2022-12-18T15:37:27;6.68;;;3.95;;
50647;SDS011;36617;52.002;6.034;2022-12-18T15:39:52;6.47;;;4.00;;
50647;SDS011;36617;52.002;6.034;2022-12-18T15:42:18;6.43;;;3.90;;
50647;SDS011;36617;52.002;6.034;2022-12-18T15:45:01;7.53;;;4.13;;
50647;SDS011;36617;52.002;6.034;2022-12-18T15:47:27;6.43;;;3.97;;
50647;SDS011;36617;52.002;6.034;2022-12-18T15:49:53;6.20;;;3.60;;
50647;SDS011;36617;52.002;6.034;2022-12-18T15:52:18;6.83;;;4.00;;
50647;SDS011;36617;52.002;6.034;2022-12-18T15:54:50;6.40;;;4.03;;
50647;SDS011;36617;52.002;6.034;2022-12-18T15:57:34;6.20;;;3.90;;
50647;SDS011;36617;52.002;6.034;2022-12-18T15:59:59;6.40;;;4.00;;
50647;SDS011;36617;52.002;6.034;2022-12-18T16:02:25;6.33;;;4.10;;
50647;SDS011;36617;52.002;6.034;2022-12-18T16:04:50;6.50;;;4.07;;
50647;SDS011;36617;52.002;6.034;2022-12-18T16:07:16;6.75;;;4.40;;
50647;SDS011;36617;52.002;6.034;2022-12-18T16:09:42;6.77;;;4.20;;
50647;SDS011;36617;52.002;6.034;2022-12-18T16:12:11;6.87;;;4.07;;
50647;SDS011;36617;52.002;6.034;2022-12-18T16:14:39;7.10;;;4.00;;
50647;SDS011;36617;52.002;6.034;2022-12-18T16:17:05;6.77;;;4.00;;
50647;SDS011;36617;52.002;6.034;2022-12-18T16:19:31;6.72;;;4.10;;
50647;SDS011;36617;52.002;6.034;2022-12-18T16:21:56;6.53;;;4.10;;
50647;SDS011;36617;52.002;6.034;2022-12-18T16:24:23;6.82;;;4.57;;
50647;SDS011;36617;52.002;6.034;2022-12-18T16:26:49;6.65;;;4.25;;
50647;SDS011;36617;52.002;6.034;2022-12-18T16:29:16;6.53;;;4.20;;